createdAt,value
2022-12-01T00:01:02.554Z,1.34
2022-12-01T00:06:12.925Z,1.39
2022-12-01T00:11:16.418Z,1.38
2022-12-01T00:16:20.016Z,1.44
2022-12-01T00:21:24.969Z,1.37
2022-12-01T00:26:28.586Z,1.28
2022-12-01T00:31:31.883Z,1.32
2022-12-01T00:36:36.212Z,1.36
2022-12-01T00:41:40.115Z,1.39
2022-12-01T00:46:43.761Z,1.37
2022-12-01T00:51:47.825Z,1.35
2022-12-01T00:56:51.501Z,1.37
2022-12-01T01:01:55.307Z,1.41
2022-12-01T01:06:59.380Z,1.50
2022-12-01T01:12:03.037Z,1.54
2022-12-01T01:17:06.423Z,1.56
2022-12-01T01:22:10.112Z,1.58
2022-12-01T01:27:16.382Z,1.66
2022-12-01T01:32:19.561Z,1.68
2022-12-01T01:37:23.170Z,1.71
2022-12-01T01:42:26.620Z,1.72
2022-12-01T01:47:41.132Z,1.69
2022-12-01T01:52:52.425Z,1.68
2022-12-01T01:57:56.985Z,1.74
2022-12-01T02:03:01.558Z,1.72
2022-12-01T02:08:12.829Z,1.65
2022-12-01T02:13:19.394Z,1.66
2022-12-01T02:19:18.419Z,1.69
2022-12-01T02:24:50.754Z,1.78
2022-12-01T02:30:19.584Z,1.83
2022-12-01T02:35:50.824Z,1.86
2022-12-01T02:41:20.482Z,1.85
2022-12-01T02:46:30.868Z,1.86
2022-12-01T02:51:36.910Z,1.91
2022-12-01T02:56:40.215Z,1.94
2022-12-01T03:01:54.703Z,1.97
2022-12-01T03:07:33.777Z,1.99
2022-12-01T03:13:03.984Z,1.97
2022-12-01T03:18:19.704Z,2.02
2022-12-01T03:23:28.915Z,2.05
2022-12-01T03:28:38.056Z,2.07
2022-12-01T03:33:49.491Z,2.02
2022-12-01T03:38:57.469Z,1.97
2022-12-01T03:44:11.454Z,2.00
2022-12-01T03:49:18.643Z,1.98
2022-12-01T03:54:47.685Z,1.94
2022-12-01T03:59:52.150Z,1.88
2022-12-01T04:04:55.369Z,1.84
2022-12-01T04:09:58.768Z,1.87
2022-12-01T04:15:06.757Z,1.86
2022-12-01T04:20:11.009Z,1.84
2022-12-01T04:25:14.500Z,1.79
2022-12-01T04:30:18.703Z,1.84
2022-12-01T04:35:22.696Z,1.82
2022-12-01T04:40:26.370Z,1.78
2022-12-01T04:45:29.864Z,1.73
2022-12-01T04:50:33.511Z,1.74
2022-12-01T04:55:39.758Z,1.71
2022-12-01T05:00:43.715Z,1.67
2022-12-01T05:05:47.705Z,1.68
2022-12-01T05:10:56.830Z,1.72
2022-12-01T05:16:08.422Z,1.71
2022-12-01T05:21:11.898Z,1.68
2022-12-01T05:26:15.688Z,1.71
2022-12-01T05:31:19.094Z,1.69
2022-12-01T05:36:22.359Z,1.64
2022-12-01T05:41:25.491Z,1.61
2022-12-01T05:46:28.817Z,1.62
2022-12-01T05:51:32.442Z,1.61
2022-12-01T05:56:36.194Z,1.61
2022-12-01T06:01:40.184Z,1.64
2022-12-01T06:06:43.690Z,1.60
2022-12-01T06:11:52.262Z,1.57
2022-12-01T06:16:56.496Z,1.60
2022-12-01T06:21:59.929Z,1.63
2022-12-01T06:27:03.699Z,1.60
2022-12-01T06:32:08.661Z,1.59
2022-12-01T06:37:16.580Z,1.64
2022-12-01T06:42:21.545Z,1.69
2022-12-01T06:47:27.274Z,1.72
2022-12-01T06:52:32.645Z,1.76
2022-12-01T06:57:39.859Z,1.84
2022-12-01T07:02:44.331Z,1.86
2022-12-01T07:07:53.778Z,1.83
2022-12-01T07:13:01.360Z,1.84
2022-12-01T07:18:06.090Z,1.95
2022-12-01T07:23:11.453Z,2.00
2022-12-01T07:28:17.045Z,2.01
2022-12-01T07:33:21.856Z,2.03
2022-12-01T07:38:28.634Z,2.11
2022-12-01T07:43:33.535Z,2.14
2022-12-01T07:48:39.102Z,2.16
2022-12-01T07:53:46.161Z,2.22
2022-12-01T07:58:50.138Z,2.29
2022-12-01T08:03:57.450Z,2.33
2022-12-01T08:09:01.563Z,2.34
2022-12-01T08:14:05.682Z,2.41
2022-12-01T08:19:11.261Z,2.50
2022-12-01T08:24:15.750Z,2.52
2022-12-01T08:29:20.470Z,2.54
2022-12-01T08:34:24.006Z,2.60
2022-12-01T08:39:28.747Z,2.71
2022-12-01T08:44:31.955Z,2.70
2022-12-01T08:49:35.487Z,2.73
2022-12-01T08:54:38.722Z,2.70
2022-12-01T08:59:46.030Z,2.76
2022-12-01T09:04:53.083Z,2.79
2022-12-01T09:09:57.510Z,2.74
2022-12-01T09:15:01.311Z,2.68
2022-12-01T09:20:05.587Z,2.65
2022-12-01T09:25:15.363Z,2.62
2022-12-01T09:30:20.422Z,2.60
2022-12-01T09:35:25.255Z,2.66
2022-12-01T09:40:34.954Z,2.83
2022-12-01T09:45:45.105Z,3.02
2022-12-01T09:50:49.066Z,3.17
2022-12-01T09:56:03.080Z,3.24
2022-12-01T10:01:19.814Z,3.28
2022-12-01T10:06:59.652Z,3.25
2022-12-01T10:12:28.296Z,3.14
2022-12-01T10:17:47.341Z,3.06
2022-12-01T10:23:02.434Z,3.12
2022-12-01T10:28:32.158Z,3.13
2022-12-01T10:33:46.184Z,3.10
2022-12-01T10:38:51.153Z,3.03
2022-12-01T10:44:01.818Z,2.98
2022-12-01T10:49:18.522Z,2.96
2022-12-01T10:54:31.648Z,2.88
2022-12-01T10:59:51.383Z,2.85
2022-12-01T11:05:01.437Z,2.87
2022-12-01T11:10:24.972Z,2.88
2022-12-01T11:15:40.185Z,2.84
2022-12-01T11:20:44.319Z,2.84
2022-12-01T11:26:12.267Z,2.93
2022-12-01T11:31:17.823Z,2.94
2022-12-01T11:36:33.009Z,2.88
2022-12-01T11:41:41.322Z,2.84
2022-12-01T11:46:55.771Z,2.90
2022-12-01T11:52:31.779Z,2.94
2022-12-01T11:57:36.644Z,2.87
2022-12-01T12:03:09.923Z,2.85
2022-12-01T12:08:34.801Z,2.85
2022-12-01T12:13:46.047Z,2.77
2022-12-01T12:19:18.442Z,2.66
2022-12-01T12:24:41.904Z,2.63
2022-12-01T12:30:14.377Z,2.55
2022-12-01T12:35:30.118Z,2.42
2022-12-01T12:40:42.936Z,2.37
2022-12-01T12:46:04.272Z,2.43
2022-12-01T12:51:20.877Z,2.42
2022-12-01T12:56:27.146Z,2.36
2022-12-01T13:01:40.644Z,2.32
2022-12-01T13:06:53.291Z,2.36
2022-12-01T13:12:27.838Z,2.40
2022-12-01T13:17:41.004Z,2.37
2022-12-01T13:22:47.600Z,2.37
2022-12-01T13:27:53.641Z,2.41
2022-12-01T13:33:05.636Z,2.35
2022-12-01T13:38:34.249Z,2.28
2022-12-01T13:43:45.488Z,2.25
2022-12-01T13:48:49.650Z,2.25
2022-12-01T13:54:25.890Z,2.23
2022-12-01T14:00:00.440Z,2.20
2022-12-01T14:05:23.495Z,2.25
2022-12-01T14:10:31.945Z,2.23
2022-12-01T14:15:43.976Z,2.22
2022-12-01T14:20:49.738Z,2.21
2022-12-01T14:26:21.352Z,2.26
2022-12-01T14:31:47.360Z,2.30
2022-12-01T14:36:56.950Z,2.19
2022-12-01T14:42:04.471Z,2.07
2022-12-01T14:47:12.383Z,2.01
2022-12-01T14:52:24.338Z,1.97
2022-12-01T14:57:45.006Z,1.96
2022-12-01T15:02:59.417Z,1.92
2022-12-01T15:13:54.887Z,1.90
2022-12-01T15:19:00.066Z,1.89
2022-12-01T15:24:24.580Z,1.87
2022-12-01T15:29:45.860Z,1.83
2022-12-01T15:34:53.461Z,1.84
2022-12-01T15:40:47.743Z,1.87
2022-12-01T15:46:02.350Z,1.88
2022-12-01T15:51:09.199Z,1.88
2022-12-01T15:56:13.291Z,1.88
2022-12-01T16:01:21.518Z,1.90
2022-12-01T16:06:29.083Z,1.87
2022-12-01T16:12:08.303Z,1.84
2022-12-01T16:17:11.987Z,1.85
2022-12-01T16:22:21.713Z,1.79
2022-12-01T16:27:28.657Z,1.72
2022-12-01T16:32:41.590Z,1.74
2022-12-01T16:37:45.604Z,1.75
2022-12-01T16:42:50.426Z,1.71
2022-12-01T16:47:55.145Z,1.65
2022-12-01T16:52:58.466Z,1.65
2022-12-01T16:58:02.201Z,1.65
2022-12-01T17:03:08.278Z,1.64
2022-12-01T17:08:12.825Z,1.64
2022-12-01T17:13:18.712Z,1.69
2022-12-01T17:18:24.082Z,1.72
2022-12-01T17:23:29.204Z,1.68
2022-12-01T17:28:34.198Z,1.62
2022-12-01T17:33:39.171Z,1.61
2022-12-01T17:38:52.403Z,1.63
2022-12-01T17:43:56.520Z,1.62
2022-12-01T17:48:59.934Z,1.55
2022-12-01T17:54:05.074Z,1.50
2022-12-01T17:59:09.105Z,1.44
2022-12-01T18:04:12.910Z,1.39
2022-12-01T18:09:17.439Z,1.38
2022-12-01T18:14:21.739Z,1.41
2022-12-01T18:19:26.698Z,1.38
2022-12-01T18:24:30.629Z,1.32
2022-12-01T18:29:35.888Z,1.24
2022-12-01T18:34:40.241Z,1.22
2022-12-01T18:39:45.225Z,1.22
2022-12-01T18:44:50.222Z,1.22
2022-12-01T18:49:55.666Z,1.22
2022-12-01T18:55:00.514Z,1.22
2022-12-01T19:00:06.829Z,1.20
2022-12-01T19:05:11.087Z,1.11
2022-12-01T19:10:16.665Z,1.05
2022-12-01T19:15:21.715Z,1.02
2022-12-01T19:20:26.283Z,0.99
2022-12-01T19:25:30.624Z,0.97
2022-12-01T19:30:35.839Z,0.96
2022-12-01T19:35:40.781Z,0.94
2022-12-01T19:40:45.146Z,0.95
2022-12-01T19:45:49.707Z,0.93
2022-12-01T19:50:53.807Z,0.92
2022-12-01T19:56:04.135Z,0.93
2022-12-01T20:01:19.237Z,0.92
2022-12-01T20:06:29.005Z,0.91
2022-12-01T20:11:36.972Z,0.91
2022-12-01T20:16:41.108Z,0.93
2022-12-01T20:21:45.740Z,0.98
2022-12-01T20:30:42.435Z,1.02
2022-12-01T20:35:46.837Z,0.94
2022-12-01T20:40:53.391Z,0.96
2022-12-01T20:45:58.840Z,0.96
2022-12-01T20:51:06.033Z,0.90
2022-12-01T20:56:12.608Z,0.86
2022-12-01T21:01:18.679Z,0.80
2022-12-01T21:06:23.250Z,0.80
2022-12-01T21:11:49.699Z,0.76
2022-12-01T21:16:59.008Z,0.76
2022-12-01T21:22:11.491Z,0.71
2022-12-01T21:27:18.838Z,0.65
2022-12-01T21:32:31.071Z,0.60
2022-12-01T21:37:35.918Z,0.61
2022-12-01T21:42:39.914Z,0.62
2022-12-01T21:47:43.740Z,0.62
2022-12-01T21:52:48.309Z,0.66
2022-12-01T21:57:53.521Z,0.62
2022-12-01T22:03:25.108Z,0.57
2022-12-01T22:08:36.339Z,0.50
2022-12-01T22:14:36.303Z,0.34
2022-12-01T22:19:44.962Z,0.37
2022-12-01T22:24:52.944Z,0.37
2022-12-01T22:30:20.836Z,0.33
2022-12-01T22:35:43.011Z,0.25
2022-12-01T22:40:49.856Z,0.25
2022-12-01T22:46:01.290Z,0.29
2022-12-01T22:51:17.263Z,0.27
2022-12-01T22:56:36.960Z,0.23
2022-12-01T23:01:48.594Z,0.15
2022-12-01T23:06:54.872Z,0.08
2022-12-01T23:12:21.438Z,0.10
2022-12-01T23:17:28.896Z,0.10
2022-12-01T23:22:32.698Z,0.11
2022-12-01T23:27:38.452Z,0.15
2022-12-01T23:32:43.431Z,0.18
2022-12-01T23:37:48.382Z,0.14
2022-12-01T23:42:52.293Z,0.15
2022-12-01T23:47:57.099Z,0.09
2022-12-01T23:53:05.005Z,0.03
2022-12-01T23:58:16.181Z,-0.01
